Time;durP1;ratioP1;P1;durP2;ratioP2;P2;SDS_P1;SDS_P2;PMS_P1;PMS_P2;Temp;Humidity;BMP_temperature;BMP_pressure;BME280_temperature;BME280_humidity;BME280_pressure;Samples;Min_cycle;Max_cycle;Signal;HPM_P1;HPM_P2
2020/12/20 00:03:00;;;;;;;10.07;5.70;;;22.20;49.10;;;;;;20824183;28;20511;-15
2020/12/20 00:13:01;;;;;;;10.35;6.90;;;22.10;49.30;;;;;;20859667;28;20087;-17
2020/12/20 00:23:02;;;;;;;29.40;17.42;;;22.10;49.60;;;;;;20875098;28;20026;-14
2020/12/20 00:33:02;;;;;;;25.42;16.77;;;21.90;50.00;;;;;;20891235;28;20095;-15
2020/12/20 00:43:03;;;;;;;22.35;16.95;;;21.90;50.00;;;;;;20933945;28;20063;-14
2020/12/20 00:53:03;;;;;;;23.73;17.48;;;21.80;50.10;;;;;;20934618;28;20051;-15
2020/12/20 01:03:04;;;;;;;26.77;17.77;;;21.60;50.30;;;;;;20933923;28;20521;-16
2020/12/20 01:13:05;;;;;;;31.05;17.85;;;21.50;50.40;;;;;;20935351;28;20041;-15
2020/12/20 01:23:06;;;;;;;20.85;14.70;;;21.50;50.80;;;;;;20909395;28;20025;-16
2020/12/20 01:33:07;;;;;;;19.25;13.23;;;21.40;50.20;;;;;;20903526;28;20029;-15
2020/12/20 01:43:07;;;;;;;23.17;12.90;;;21.30;50.60;;;;;;20907940;28;20445;-16
2020/12/20 01:53:10;;;;;;;95.07;52.53;;;21.20;51.10;;;;;;20904135;28;20040;-16
2020/12/20 02:03:11;;;;;;;148.90;87.72;;;21.10;51.20;;;;;;21044929;22;20119;-16
2020/12/20 02:13:11;;;;;;;129.85;79.22;;;21.00;50.90;;;;;;21061400;28;20043;-16
2020/12/20 02:23:12;;;;;;;108.65;67.05;;;20.90;51.00;;;;;;21088408;28;20024;-16
2020/12/20 02:33:13;;;;;;;97.50;60.20;;;20.80;51.00;;;;;;21073628;28;20111;-15
2020/12/20 02:43:14;;;;;;;78.43;48.65;;;20.80;51.00;;;;;;21083520;28;20031;-15
2020/12/20 02:53:14;;;;;;;74.38;48.85;;;20.70;50.90;;;;;;21032709;28;20024;-15
2020/12/20 03:03:15;;;;;;;63.92;42.60;;;20.60;51.00;;;;;;21042072;28;20027;-15
2020/12/20 03:13:15;;;;;;;64.85;42.28;;;20.60;51.20;;;;;;21039747;28;20028;-16
2020/12/20 03:23:16;;;;;;;72.65;44.03;;;20.50;51.60;;;;;;21031527;28;20036;-15
2020/12/20 03:33:16;;;;;;;53.23;33.70;;;20.40;51.70;;;;;;21028389;28;20111;-15
2020/12/20 03:43:17;;;;;;;50.22;31.23;;;20.40;51.80;;;;;;21022311;28;20056;-15
2020/12/20 03:53:17;;;;;;;43.92;28.65;;;20.30;52.10;;;;;;21041329;28;20491;-16
2020/12/20 04:03:18;;;;;;;41.15;28.52;;;20.20;52.40;;;;;;21021332;28;20040;-15
2020/12/20 04:13:18;;;;;;;42.38;27.55;;;20.20;52.60;;;;;;21021230;28;20027;-15
2020/12/20 04:23:19;;;;;;;35.17;23.15;;;20.20;52.80;;;;;;21040391;28;20085;-15
2020/12/20 04:33:20;;;;;;;33.23;22.50;;;20.20;53.00;;;;;;21036806;28;20648;-15
2020/12/20 04:43:22;;;;;;;32.85;20.50;;;20.10;53.10;;;;;;21029747;28;20470;-16
2020/12/20 04:53:23;;;;;;;28.52;17.40;;;20.00;53.30;;;;;;21021622;28;20039;-15
2020/12/20 05:03:24;;;;;;;25.08;17.65;;;20.00;53.30;;;;;;21030396;28;20093;-15
2020/12/20 05:13:38;;;;;;;22.38;15.18;;;20.00;53.50;;;;;;21067764;28;20016;-16
2020/12/20 05:23:39;;;;;;;20.90;15.18;;;19.90;53.50;;;;;;21070652;28;20024;-16
2020/12/20 05:33:39;;;;;;;21.08;14.88;;;19.90;53.60;;;;;;21068410;28;20024;-15
2020/12/20 05:43:40;;;;;;;17.98;13.18;;;19.90;53.50;;;;;;21067714;28;20048;-17
2020/12/20 05:53:40;;;;;;;17.15;11.88;;;19.80;53.50;;;;;;21068698;28;20090;-15
2020/12/20 06:03:41;;;;;;;20.67;12.70;;;19.80;53.20;;;;;;21064219;28;20041;-15
2020/12/20 06:13:44;;;;;;;14.02;10.98;;;19.80;53.20;;;;;;21068801;28;20039;-16
2020/12/20 06:23:54;;;;;;;16.02;10.18;;;19.70;53.20;;;;;;21073746;28;20031;-16
2020/12/20 06:33:55;;;;;;;15.43;10.25;;;19.80;53.10;;;;;;21068253;28;20032;-15
2020/12/20 06:43:56;;;;;;;13.45;9.95;;;19.70;52.90;;;;;;21066827;28;20034;-16
2020/12/20 06:53:56;;;;;;;11.43;9.73;;;19.70;52.80;;;;;;21066657;28;20020;-15
2020/12/20 07:03:57;;;;;;;10.80;7.78;;;19.60;52.80;;;;;;21084790;28;20672;-16
2020/12/20 07:13:58;;;;;;;11.27;7.85;;;19.70;52.70;;;;;;21086640;28;20020;-16
2020/12/20 07:24:19;;;;;;;10.73;6.55;;;19.80;52.50;;;;;;21082354;28;20059;-16
2020/12/20 07:34:20;;;;;;;11.63;8.38;;;20.40;51.90;;;;;;21079486;28;20020;-15
2020/12/20 07:44:20;;;;;;;9.65;5.88;;;21.10;50.00;;;;;;21042700;28;20541;-16
2020/12/20 07:54:21;;;;;;;9.93;6.78;;;21.80;48.40;;;;;;21036294;28;20048;-16
2020/12/20 08:04:22;;;;;;;7.22;5.47;;;22.40;47.20;;;;;;20987910;22;20474;-17
2020/12/20 08:14:23;;;;;;;8.75;5.40;;;23.00;46.00;;;;;;20923667;28;20021;-16
2020/12/20 08:24:32;;;;;;;8.43;5.53;;;23.50;45.00;;;;;;20922320;28;20669;-16
2020/12/20 08:34:33;;;;;;;6.65;4.00;;;23.90;44.40;;;;;;20920603;28;20104;-16
2020/12/20 08:44:34;;;;;;;6.13;4.43;;;23.70;44.80;;;;;;20908188;28;20049;-17
2020/12/20 08:54:34;;;;;;;5.97;3.97;;;23.30;45.60;;;;;;20909536;28;20017;-16
2020/12/20 09:04:37;;;;;;;5.03;3.63;;;22.90;46.90;;;;;;20910824;28;20551;-15
2020/12/20 09:14:37;;;;;;;5.00;3.92;;;22.60;47.20;;;;;;20918936;28;20028;-15
2020/12/20 09:24:47;;;;;;;5.28;3.50;;;22.40;47.70;;;;;;20901767;28;20025;-15
2020/12/20 09:34:48;;;;;;;5.47;3.55;;;22.10;48.10;;;;;;20885545;28;20037;-16
2020/12/20 09:44:48;;;;;;;4.07;2.50;;;22.20;48.20;;;;;;20901070;28;20040;-16
2020/12/20 09:54:49;;;;;;;11.05;3.55;;;22.20;48.20;;;;;;20902746;28;20542;-15
2020/12/20 10:04:49;;;;;;;7.38;3.30;;;22.10;49.10;;;;;;20895989;28;20025;-16
2020/12/20 10:14:50;;;;;;;10.90;3.33;;;22.40;49.00;;;;;;20898304;28;20017;-15
2020/12/20 10:24:50;;;;;;;12.88;3.10;;;22.80;48.20;;;;;;20888761;28;20040;-16
2020/12/20 10:34:51;;;;;;;15.25;4.60;;;23.30;47.60;;;;;;20928308;28;20025;-15
2020/12/20 10:44:52;;;;;;;23.07;11.40;;;24.00;46.80;;;;;;20941209;28;20028;-16
2020/12/20 10:54:52;;;;;;;13.97;8.70;;;24.60;45.70;;;;;;20909693;28;20370;-16
2020/12/20 11:04:53;;;;;;;26.95;14.10;;;25.00;44.70;;;;;;20918895;28;20033;-15
2020/12/20 11:14:54;;;;;;;21.38;12.75;;;25.30;44.20;;;;;;20910711;28;20108;-16
2020/12/20 11:24:54;;;;;;;18.75;10.68;;;24.80;44.30;;;;;;20883744;28;20022;-15
2020/12/20 11:34:55;;;;;;;12.93;9.27;;;24.40;45.20;;;;;;20866324;28;20033;-15
2020/12/20 11:44:55;;;;;;;16.13;9.55;;;24.10;45.80;;;;;;20871067;28;20091;-15
2020/12/20 11:54:56;;;;;;;21.53;8.97;;;24.00;46.00;;;;;;20906120;28;20037;-14
2020/12/20 12:04:56;;;;;;;52.55;25.77;;;23.90;45.70;;;;;;20908031;28;20065;-17
2020/12/20 12:14:57;;;;;;;59.25;27.23;;;23.80;46.10;;;;;;20916247;28;20054;-15
2020/12/20 12:24:58;;;;;;;44.05;24.40;;;23.70;46.00;;;;;;20918054;28;20146;-15
2020/12/20 12:34:59;;;;;;;38.72;19.05;;;23.60;46.50;;;;;;20925019;28;20485;-16
2020/12/20 12:44:59;;;;;;;34.17;16.13;;;23.60;46.20;;;;;;20927755;28;20033;-15
2020/12/20 12:55:01;;;;;;;34.65;15.60;;;23.50;46.50;;;;;;20939015;28;20033;-19
2020/12/20 13:05:02;;;;;;;30.05;13.18;;;23.80;46.20;;;;;;20912085;28;20044;-17
2020/12/20 13:15:03;;;;;;;32.15;12.30;;;23.80;46.70;;;;;;20900665;28;20033;-14
2020/12/20 13:25:04;;;;;;;30.00;13.57;;;24.00;46.70;;;;;;20917013;28;20039;-16
2020/12/20 13:35:05;;;;;;;26.70;11.82;;;24.00;47.40;;;;;;20906164;28;20056;-16
2020/12/20 13:45:06;;;;;;;35.00;11.57;;;24.10;47.10;;;;;;20906989;28;20040;-15
2020/12/20 13:55:07;;;;;;;27.73;15.20;;;23.90;48.10;;;;;;20906554;28;20021;-15
2020/12/20 14:05:08;;;;;;;30.95;21.52;;;24.10;45.30;;;;;;20921662;28;20055;-17
2020/12/20 14:15:08;;;;;;;30.05;21.70;;;23.80;45.00;;;;;;20918572;28;20032;-17
2020/12/20 14:25:09;;;;;;;33.85;19.67;;;23.60;45.90;;;;;;20918073;28;20051;-16
2020/12/20 14:35:09;;;;;;;29.55;17.83;;;23.60;46.40;;;;;;20918007;28;20029;-16
2020/12/20 14:45:10;;;;;;;26.50;17.70;;;23.60;46.80;;;;;;20916610;28;20035;-16
2020/12/20 14:55:10;;;;;;;20.30;16.63;;;23.60;47.10;;;;;;20915134;28;20071;-15
2020/12/20 15:05:14;;;;;;;35.70;17.08;;;23.70;47.20;;;;;;20916248;28;20039;-16
2020/12/20 15:15:15;;;;;;;23.55;15.15;;;23.70;47.20;;;;;;20922621;28;20029;-16
2020/12/20 15:25:15;;;;;;;21.92;14.35;;;23.70;47.30;;;;;;20911197;28;20041;-16
2020/12/20 15:35:16;;;;;;;15.57;12.75;;;23.70;47.30;;;;;;20912560;28;20166;-16
2020/12/20 15:45:16;;;;;;;18.02;13.02;;;23.70;47.40;;;;;;20901837;28;20100;-16
2020/12/20 15:55:17;;;;;;;17.77;10.88;;;23.70;47.50;;;;;;20900960;28;20056;-14
2020/12/20 16:05:18;;;;;;;24.70;10.32;;;23.70;47.20;;;;;;20880883;28;20116;-15
2020/12/20 16:15:18;;;;;;;31.10;12.95;;;23.70;46.90;;;;;;20913527;28;20036;-15
2020/12/20 16:25:19;;;;;;;25.30;11.00;;;23.60;47.00;;;;;;20924395;28;20025;-15
2020/12/20 16:35:19;;;;;;;27.42;10.85;;;23.60;47.30;;;;;;20877818;28;20029;-15
2020/12/20 16:45:20;;;;;;;21.25;11.70;;;23.50;47.10;;;;;;20925852;28;20079;-16
2020/12/20 16:55:20;;;;;;;28.75;14.02;;;23.60;46.90;;;;;;20926552;28;20060;-16
2020/12/20 17:05:21;;;;;;;31.30;11.65;;;23.40;46.30;;;;;;20905455;28;20033;-16
2020/12/20 17:15:22;;;;;;;21.98;12.18;;;23.50;45.90;;;;;;20928239;28;20035;-16
2020/12/20 17:25:23;;;;;;;19.55;8.85;;;23.30;46.00;;;;;;20929363;28;20104;-15
2020/12/20 17:35:24;;;;;;;18.83;9.10;;;23.60;45.30;;;;;;20932395;28;20042;-15
2020/12/20 17:45:24;;;;;;;19.00;8.53;;;23.70;45.20;;;;;;20931177;28;20467;-16
2020/12/20 17:55:25;;;;;;;19.27;8.05;;;23.80;45.00;;;;;;20924371;28;20033;-16
2020/12/20 18:05:26;;;;;;;10.57;7.23;;;23.70;45.00;;;;;;20891832;28;20037;-16
2020/12/20 18:15:26;;;;;;;19.47;8.87;;;23.90;44.60;;;;;;20915198;28;20459;-16
2020/12/20 18:25:27;;;;;;;15.60;8.57;;;23.80;44.70;;;;;;20905672;28;20566;-16
2020/12/20 18:35:27;;;;;;;17.98;8.07;;;24.00;44.80;;;;;;20909354;28;20644;-16
2020/12/20 18:45:28;;;;;;;17.23;8.00;;;23.90;44.90;;;;;;20901267;28;20120;-17
2020/12/20 18:55:28;;;;;;;21.77;8.20;;;23.60;45.90;;;;;;20905975;28;20459;-16
2020/12/20 19:05:30;;;;;;;18.10;7.25;;;23.60;46.30;;;;;;20915298;28;20029;-16
2020/12/20 19:15:32;;;;;;;18.85;6.05;;;23.60;46.50;;;;;;20914938;28;20385;-17
2020/12/20 19:25:33;;;;;;;15.68;6.78;;;23.50;46.50;;;;;;20904844;28;20029;-17
2020/12/20 19:35:33;;;;;;;20.65;7.15;;;23.50;46.50;;;;;;20894109;28;20104;-15
2020/12/20 19:45:34;;;;;;;15.20;6.75;;;23.50;46.50;;;;;;20913126;28;20029;-15
2020/12/20 19:55:35;;;;;;;10.32;5.97;;;23.40;46.50;;;;;;20920022;28;20037;-16
2020/12/20 20:05:36;;;;;;;9.65;5.72;;;23.40;46.30;;;;;;20936500;28;20029;-15
2020/12/20 20:15:36;;;;;;;8.45;5.72;;;23.50;46.20;;;;;;20929715;28;20104;-16
2020/12/20 20:25:37;;;;;;;10.55;5.70;;;23.60;45.90;;;;;;20911914;28;20025;-16
2020/12/20 20:35:38;;;;;;;12.30;5.75;;;23.70;45.40;;;;;;20910161;28;20489;-16
2020/12/20 20:45:39;;;;;;;25.38;5.70;;;23.80;46.00;;;;;;20919032;28;20554;-16
2020/12/20 20:55:41;;;;;;;13.40;5.75;;;23.90;45.50;;;;;;20927959;28;20033;-16
2020/12/20 21:05:42;;;;;;;12.18;4.07;;;24.00;45.20;;;;;;20907469;28;20106;-16
2020/12/20 21:15:42;;;;;;;17.52;4.07;;;24.00;45.50;;;;;;20882307;28;20490;-15
2020/12/20 21:25:43;;;;;;;11.40;5.25;;;23.90;46.00;;;;;;20848442;28;20034;-16
2020/12/20 21:35:44;;;;;;;6.65;4.55;;;23.70;46.40;;;;;;20859150;28;20398;-14
2020/12/20 21:45:44;;;;;;;8.25;3.58;;;23.80;46.40;;;;;;20864133;28;20057;-17
2020/12/20 21:55:45;;;;;;;5.82;3.30;;;23.60;47.10;;;;;;20861992;28;20057;-16
2020/12/20 22:05:45;;;;;;;8.05;3.22;;;23.50;47.30;;;;;;20885433;28;20374;-15
2020/12/20 22:15:46;;;;;;;9.32;3.72;;;23.40;47.80;;;;;;20866700;28;20033;-16
2020/12/20 22:25:46;;;;;;;5.45;3.17;;;23.20;48.30;;;;;;20913450;28;20087;-16
2020/12/20 22:35:47;;;;;;;7.97;3.25;;;22.90;48.80;;;;;;20944330;28;20133;-16
2020/12/20 22:45:48;;;;;;;7.97;3.00;;;22.70;49.10;;;;;;20968253;28;20037;-16
2020/12/20 22:55:51;;;;;;;8.18;3.72;;;22.70;49.40;;;;;;20953760;28;20103;-15
2020/12/20 23:05:52;;;;;;;6.40;2.97;;;22.50;49.50;;;;;;20944714;28;20083;-16
2020/12/20 23:15:53;;;;;;;8.07;3.30;;;22.30;49.90;;;;;;20951958;28;20025;-15
2020/12/20 23:25:58;;;;;;;3.70;2.55;;;22.10;49.80;;;;;;20930337;28;20029;-15
2020/12/20 23:35:59;;;;;;;5.63;3.08;;;21.90;49.80;;;;;;20835386;28;20550;-15
2020/12/20 23:46:00;;;;;;;13.50;2.95;;;21.90;49.70;;;;;;20838546;28;20025;-14
2020/12/20 23:56:01;;;;;;;7.20;3.13;;;21.90;49.50;;;;;;20912902;28;20701;-16
